Elkhart, IN (46514)

7:30 AM EST on February 06, 2016 (GMT -0500)
Elkhart North Point | | Change Station
CLOSE
Current Station
Personal Weather Station
Location: Elkhart, IN
Elevation: 778 ft
Nearby Weather Stations

Elev 778 ft 41.76 °N, 85.99 °W | Updated 5 seconds ago

Mostly Cloudy
Mostly Cloudy
23.0 °F
Feels Like 23 °F
N
0.0
Wind Variable Wind from West
Gusts 0.0 mph

Today
High -- | Low -- °F
--% Chance of Precip.
Yesterday
High -- | Low -- °F
Precip. -- in
Pressure 30.34 in
Visibility 3.0 miles
Clouds Few 9000 ft
Windchill 23 °F
Dew Point 22 °F
Humidity 96%
Rainfall 0.00 in
Snow Depth Not available.
7:51 AM 6:05 PM
Waning Crescent, 6% visible
METAR KGSH 061153Z AUTO 24003KT 3SM BR FEW090 M06/M07 A3030 RMK AO2 SLP273 I1000 I6000 T10611072 11039 21067 53002
Pressure 30.34 in
Visibility 3.0 miles
Clouds Few 9000 ft
Windchill 23 °F
Dew Point 22 °F
Humidity 96%
Rainfall 0.00 in
Snow Depth Not available.
7:51 AM 6:05 PM
Waning Crescent, 6% visible
METAR KGSH 061153Z AUTO 24003KT 3SM BR FEW090 M06/M07 A3030 RMK AO2 SLP273 I1000 I6000 T10611072 11039 21067 53002

10-Day Weather Forecast

Almanac

Astronomy

Feb. 06, 2016 Rise Set
Actual Time
Civil Twilight
Nautical Twilight
Astronomical Twilight
Moon
Length of Visible Light
Length of Day
Tomorrow will be .
, % of the Moon is Illuminated

Today's Extremes

State Highs State Lows

Community

WunderPhotos

Upload Photos

1,890,944 photos uploaded!

WunderBlog® & News

Nearby

Air Quality

  Air Quality AQ Index Pollutant
Not available.

Snow Depth

Station Depth Elevation

Earthquake Activity

City Distance Mag. Time & Date
Minimum magnitude displayed is 2.5.

Coastal Water Temperatures

Place Temperature

Stations

Nearby Weather Stations

Station Location Temp. Windchill Dew Point Humidity Wind Precip. Elev Updated Type
                   

Watches & Warnings

There are currently no watches in effect.